AirNav   TITAN Aviation Fuels
 
 1131 users online  

MN18 Barrett Airport
Brainerd, Minnesota, USA

GOING TO BRAINERD?


FAA INFORMATION EFFECTIVE 19 MAY 2022

Location

FAA Identifier: MN18
Lat/Long: 46-10-41.3720N 094-05-18.9660W
46-10.689533N 094-05.316100W
46.1781589,-94.0886017
(estimated)
Elevation: 1275 ft. / 389 m (estimated)
Variation: 04E (1990)
From city: 15 miles S of BRAINERD, MN
Time zone: UTC -5 (UTC -6 during Standard Time)
Zip code: 56401

Airport Operations

Airport use: Private use. Permission required prior to landing
Activation date: 08/1994
Control tower: no
ARTCC: MINNEAPOLIS CENTER
FSS: PRINCETON FLIGHT SERVICE STATION
Attendance: UNATNDD
Wind indicator: yes
Segmented circle: no

Airport Communications

WX ASOS at BRD (14 nm N): 126.775 (218-828-3314)
WX AWOS-3 at LXL (17 nm SW): 119.450 (320-632-6791)

Nearby radio navigation aids

VOR radial/distance  VOR name  Freq  Var
STCr355/37.8ST CLOUD VOR/DME112.1003E

 
NDB name  Hdg/Dist  Freq  Var  ID
RIPLEY058/12.140403EXCR -..- -.-. .-.

Airport Services

Runway Information

Runway 9/27

Dimensions: 2600 x 100 ft. / 792 x 30 m
Surface: turf
RUNWAY 9  RUNWAY 27
Traffic pattern: leftleft
Obstructions: 30 ft. trees, 500 ft. from runway15 ft. road

Airport Ownership and Management from official FAA records

Ownership: Privately-owned
Owner: MICHAEL BARRETT
1417 S. HWY 25
BRAINERD, MN 56401
Phone 320-277-3555

Airport Operational Statistics

Aircraft based on the field: 1
Single engine airplanes: 1
    

Additional Remarks

FOR CD CTC MINNEAPOLIS ARTCC AT 651-463-5588.
NO SNW PLWG IN WINT; GRASS MOWED IN SUMMER.

Instrument Procedures

There are no published instrument procedures at MN18.

Some nearby airports with instrument procedures:

KRYM - Ray S Miller Army Airfield (12 nm SW)
KBRD - Brainerd Lakes Regional Airport (14 nm N)
KLXL - Little Falls/Morrison County Airport-Lindbergh Field (17 nm SW)
KAIT - Aitkin Municipal Airport - Steve Kurtz Field (28 nm NE)
KSAZ - Staples Municipal Airport (32 nm W)
 
Loc | Ops | Rwys | IFR | FBO | Links
Com | Nav | Svcs | Stats | Notes
Area around MN18 (Barrett Airport)
 
Road maps at: MapQuest Bing Google
 
Aerial photo
No photo
 
Sectional chart

 
Airport distance calculator
Flying to Barrett Airport? Find the distance to fly.

From to MN18

Sunrise and sunset
Times for 27-May-2022
 Local
(UTC-5)
 Zulu
(UTC)
Morning civil twilight04:5609:56
Sunrise05:3310:33
Sunset20:5401:54
Evening civil twilight21:3102:31

Current date and time
Zulu (UTC)  27-May-2022 22:44:24
Local (UTC-5)  27-May-2022 17:44:24
 
METAR
KRYM 
12nm SW 
272156Z AUTO 21009KT 10SM SCT085 27/07 A2977 RMK AO2 LTG DSNT NW SLP084 T02710070 FZRANO $
KBRD 
13nm N 
272153Z AUTO 29008KT 10SM FEW085 28/06 A2979 RMK AO2 SLP086 T02780061 TSNO $
KLXL 
17nm SW 
272235Z AUTO 26006KT 10SM CLR 27/05 A2980 RMK AO2
TAF
KBRD 
13nm N 
271728Z 2718/2818 21009G17KT P6SM FEW100 FM272200 26005KT P6SM FEW100 FM280900 16005KT P6SM -SHRA VCTS OVC100CB FM281000 15005KT 4SM -SHRA BR VCTS BKN090CB FM281500 12011G21KT 6SM -SHRA OVC022
NOTAMs
Click for the latest NOTAMs
NOTAMs are issued by the DoD/FAA and will open in a separate window not controlled by AirNav.

 

 
 

Would you like to see your business listed on this page?

 If your business provides an interesting product or service to pilots, flight crews, aircraft, or users of the Barrett Airport, you should consider listing it here.  To start the listing process, click on the button below
 
Add a business
 

Other Pages about Barrett Airport

Update a link
 
Copyright © AirNav, LLC. All rights reserved. Privacy Policy  Contact